KEKO/EKO METAR and TAF weather

Enter ICAO airport designator
Station Type Date Time Source
KEKO METAR 2018/07/21 12:56 UTC NOAA

KEKO 211256Z AUTO 00000KT 10SM CLR 20/09 A3014 RMK AO2 SLP139 T02000089


Station Type Date Time Source
KEKO Decoded METAR 2018/07/21 12:56 UTC NOAA

ELKO REGIONAL AIRPORT, NV, United States (KEKO) 40-50N 115-47W 1547M
Jul 21, 2018 - 08:56 AM EDT / 2018.07.21 1256 UTC
Wind: Calm:0
Visibility: 10 mile(s):0
Sky conditions: clear
Temperature: 68.0 F (20.0 C)
Dew Point: 48.0 F (8.9 C)
Relative Humidity: 48%
Pressure (altimeter): 30.14 in. Hg (1020 hPa)
ob: KEKO 211256Z AUTO 00000KT 10SM CLR 20/09 A3014 RMK AO2 SLP139 T02000089
cycle: 13

Station Type Date Time Source
KEKO TAF 2018/07/21 12:22 UTC NOAA

TAF KEKO 211120Z 2112/2212 VRB05KT P6SM SCT120 BKN200
FM212000 23012G22KT P6SM VCTS BKN120CB BKN250
FM220300 25010KT P6SM VCSH BKN120
FM220600 21006KT P6SM BKN250


Example: see airport list